Time;durP1;ratioP1;P1;durP2;ratioP2;P2;SDS_P1;SDS_P2;PMS_P1;PMS_P2;Temp;Humidity;BMP_temperature;BMP_pressure;BME280_temperature;BME280_humidity;BME280_pressure;Samples;Min_cycle;Max_cycle;Signal;HPM_P1;HPM_P2
2022/01/31 00:00:45;;;;;;;;;5.40;4.40;;;;;4.76;47.24;99621.72;5030140;28;9733;-77
2022/01/31 00:03:14;;;;;;;;;3.80;3.60;;;;;4.66;47.47;99620.63;5028726;28;8871;-77
2022/01/31 00:05:43;;;;;;;;;4.60;1.60;;;;;4.80;47.29;99627.81;5030309;28;8855;-76
2022/01/31 00:08:12;;;;;;;;;2.80;2.80;;;;;4.76;47.60;99621.72;5008984;28;8899;-77
2022/01/31 00:10:42;;;;;;;;;1.00;1.00;;;;;4.86;47.58;99622.81;5009894;28;9620;-77
2022/01/31 00:13:17;;;;;;;;;4.00;2.00;;;;;5.02;46.75;99624.91;5025252;28;8872;-77
2022/01/31 00:15:53;;;;;;;;;4.40;2.80;;;;;4.96;47.16;99631.66;5008874;28;8885;-77
2022/01/31 00:18:22;;;;;;;;;6.20;5.00;;;;;5.08;46.69;99634.50;5025560;28;8931;-77
2022/01/31 00:20:52;;;;;;;;;3.60;3.60;;;;;4.98;47.62;99635.16;5008291;28;9654;-77
2022/01/31 00:23:21;;;;;;;;;4.00;4.00;;;;;4.99;47.02;99624.84;5024985;28;8986;-75
2022/01/31 00:25:51;;;;;;;;;3.20;3.20;;;;;5.02;47.12;99621.47;5008759;28;8862;-77
2022/01/31 00:28:20;;;;;;;;;1.00;1.00;;;;;4.82;47.32;99620.97;4996611;28;8851;-76
2022/01/31 00:30:49;;;;;;;;;4.20;4.00;;;;;4.96;47.41;99618.75;5044673;28;8883;-77
2022/01/31 00:33:17;;;;;;;;;4.00;3.60;;;;;4.94;47.43;99623.00;5045070;28;8859;-77
2022/01/31 00:35:46;;;;;;;;;2.60;2.60;;;;;4.54;48.00;99622.00;4995156;28;8847;-77
2022/01/31 00:38:15;;;;;;;;;2.00;2.00;;;;;4.57;47.94;99625.56;5028242;28;9009;-77
2022/01/31 00:40:44;;;;;;;;;3.60;3.60;;;;;4.52;48.11;99616.84;5011683;28;8964;-77
2022/01/31 00:43:16;;;;;;;;;1.00;1.00;;;;;4.51;48.23;99625.41;5028134;28;8879;-76
2022/01/31 00:45:56;;;;;;;;;2.80;1.60;;;;;4.48;48.30;99625.34;5027520;28;9672;-76
2022/01/31 00:48:27;;;;;;;;;2.00;2.00;;;;;4.61;47.92;99619.66;5029104;28;9618;-77
2022/01/31 00:50:56;;;;;;;;;2.80;2.00;;;;;4.69;47.78;99627.59;5044525;28;9703;-78
2022/01/31 00:53:24;;;;;;;;;3.60;2.40;;;;;4.78;47.76;99634.66;5047077;28;8893;-77
2022/01/31 00:55:55;;;;;;;;;1.00;1.00;;;;;4.88;47.35;99629.75;5012633;28;8932;-76
2022/01/31 00:58:25;;;;;;;;;5.00;3.60;;;;;4.66;48.41;99632.66;5007132;28;8854;-76
2022/01/31 01:00:55;;;;;;;;;5.80;5.00;;;;;4.73;48.17;99631.13;5008208;28;8949;-78
2022/01/31 01:03:23;;;;;;;;;3.20;2.80;;;;;4.89;47.68;99631.50;5024306;28;8882;-77
2022/01/31 01:05:52;;;;;;;;;4.20;3.60;;;;;4.79;47.69;99628.69;5009269;28;8901;-77
2022/01/31 01:08:22;;;;;;;;;2.80;2.40;;;;;4.75;48.32;99624.28;5007682;28;8888;-75
2022/01/31 01:10:51;;;;;;;;;2.00;2.00;;;;;4.82;47.89;99626.16;5007784;28;8858;-76
2022/01/31 01:13:19;;;;;;;;;2.80;2.80;;;;;4.68;48.25;99625.81;5023877;28;9324;-76
2022/01/31 01:15:49;;;;;;;;;2.00;1.80;;;;;4.71;47.96;99623.34;5022405;28;8877;-77
2022/01/31 01:18:18;;;;;;;;;3.20;2.00;;;;;4.65;48.42;99620.56;5044363;28;9043;-76
2022/01/31 01:20:47;;;;;;;;;2.80;2.80;;;;;4.44;48.38;99623.50;5043948;28;8917;-75
2022/01/31 01:23:16;;;;;;;;;2.80;2.80;;;;;4.48;48.58;99633.97;5027057;28;8839;-77
2022/01/31 01:25:46;;;;;;;;;1.80;1.80;;;;;4.58;48.17;99624.72;5028643;28;9006;-76
2022/01/31 01:28:17;;;;;;;;;4.80;2.00;;;;;4.67;47.94;99617.22;5027621;28;8878;-76
2022/01/31 01:30:47;;;;;;;;;2.00;1.80;;;;;4.59;47.77;99605.81;5044268;28;8856;-77
2022/01/31 01:33:21;;;;;;;;;4.20;1.20;;;;;4.34;48.69;99606.91;5027049;28;8875;-76
2022/01/31 01:35:53;;;;;;;;;2.00;0.60;;;;;4.34;48.31;99604.34;5027261;28;8867;-75
2022/01/31 01:38:28;;;;;;;;;1.80;1.00;;;;;4.04;49.09;99605.28;5027298;28;8855;-76
2022/01/31 01:40:59;;;;;;;;;4.20;4.00;;;;;4.08;49.39;99608.81;5027433;28;8867;-80
2022/01/31 01:43:30;;;;;;;;;2.00;2.00;;;;;4.24;49.30;99610.09;5026270;28;8876;-75
2022/01/31 01:46:01;;;;;;;;;2.00;2.00;;;;;4.34;49.29;99613.78;5026707;28;8874;-76
2022/01/31 01:48:34;;;;;;;;;5.80;5.00;;;;;4.38;48.71;99613.91;5043897;28;8953;-76
2022/01/31 01:51:05;;;;;;;;;4.60;3.20;;;;;4.43;48.89;99608.88;5027008;28;8852;-77
2022/01/31 01:53:35;;;;;;;;;4.60;4.60;;;;;4.35;49.38;99610.34;5026378;28;9002;-77
2022/01/31 01:56:03;;;;;;;;;7.60;5.00;;;;;4.43;49.03;99606.28;5027018;28;8969;-77
2022/01/31 01:58:40;;;;;;;;;4.00;4.00;;;;;4.36;49.17;99612.97;5042879;28;8871;-77
2022/01/31 02:01:12;;;;;;;;;5.00;4.00;;;;;4.14;49.37;99609.00;4977520;28;8851;-76
2022/01/31 02:04:02;;;;;;;;;2.00;1.20;;;;;3.99;50.37;99601.72;5026826;28;8843;-78
2022/01/31 02:06:36;;;;;;;;;2.20;1.40;;;;;3.88;50.14;99595.41;5031415;28;8883;-78
2022/01/31 02:09:07;;;;;;;;;5.00;2.80;;;;;3.89;49.86;99597.13;5012224;28;8844;-78
2022/01/31 02:11:36;;;;;;;;;4.20;4.20;;;;;3.90;50.43;99610.06;5024072;28;8874;-77
2022/01/31 02:14:07;;;;;;;;;1.40;0.80;;;;;3.94;50.46;99597.25;5014266;28;9570;-78
2022/01/31 02:16:54;;;;;;;;;1.00;1.00;;;;;3.96;50.11;99596.47;5032527;28;8870;-79
2022/01/31 02:19:33;;;;;;;;;2.00;2.00;;;;;4.06;50.35;99584.69;5012486;28;8868;-77
2022/01/31 02:22:15;;;;;;;;;2.00;2.00;;;;;4.04;49.70;99588.94;5045666;28;8895;-79
2022/01/31 02:24:43;;;;;;;;;5.40;4.60;;;;;3.82;50.36;99582.31;4995872;28;8965;-75
2022/01/31 02:27:29;;;;;;;;;2.80;2.80;;;;;3.64;50.86;99586.13;5027949;28;8870;-78
2022/01/31 02:29:58;;;;;;;;;4.40;4.40;;;;;3.72;51.18;99581.19;5023825;28;8893;-79
2022/01/31 02:32:30;;;;;;;;;2.00;1.60;;;;;3.93;50.69;99591.22;5010405;28;8858;-79
2022/01/31 02:35:04;;;;;;;;;3.80;2.00;;;;;4.06;50.15;99582.09;4965361;28;8967;-77
2022/01/31 02:37:35;;;;;;;;;2.40;2.40;;;;;4.18;49.59;99590.16;5000826;28;8855;-77
2022/01/31 02:40:33;;;;;;;;;6.60;3.60;;;;;4.24;49.24;99581.72;5046946;28;9023;-77
2022/01/31 02:43:05;;;;;;;;;2.80;2.00;;;;;4.14;49.19;99574.56;5011803;28;8874;-77
2022/01/31 02:45:34;;;;;;;;;4.00;2.80;;;;;4.29;49.20;99569.78;5030444;28;8834;-75
2022/01/31 02:48:04;;;;;;;;;0.40;0.00;;;;;4.23;49.68;99567.91;5014368;28;8870;-76
2022/01/31 02:50:34;;;;;;;;;2.00;2.00;;;;;4.38;49.26;99556.22;5014133;28;8865;-76
2022/01/31 02:53:13;;;;;;;;;2.40;2.40;;;;;4.24;48.99;99556.75;5011495;28;8864;-75
2022/01/31 02:55:44;;;;;;;;;1.40;1.00;;;;;4.19;48.98;99557.50;4984448;28;8860;-76
2022/01/31 02:58:17;;;;;;;;;4.20;2.00;;;;;3.98;49.52;99552.66;5011419;28;8871;-77
2022/01/31 03:00:49;;;;;;;;;0.80;0.60;;;;;3.62;50.46;99545.69;5013583;28;8850;-76
2022/01/31 03:03:27;;;;;;;;;5.00;4.40;;;;;3.27;51.44;99542.97;5032151;28;8858;-75
2022/01/31 03:05:57;;;;;;;;;1.20;1.20;;;;;3.31;51.24;99542.25;5016688;28;8838;-78
2022/01/31 03:08:27;;;;;;;;;7.00;4.80;;;;;3.26;51.37;99541.25;5015758;28;8874;-76
2022/01/31 03:10:59;;;;;;;;;0.20;0.20;;;;;3.25;50.89;99534.34;5016385;28;8909;-76
2022/01/31 03:13:46;;;;;;;;;2.00;2.00;;;;;3.06;51.40;99530.34;5018071;28;8949;-75
2022/01/31 03:16:15;;;;;;;;;4.20;4.20;;;;;2.89;51.36;99533.31;5029103;28;8854;-75
2022/01/31 03:19:03;;;;;;;;;7.80;3.60;;;;;2.85;51.66;99528.88;5027224;28;8909;-76
2022/01/31 03:21:33;;;;;;;;;5.00;4.80;;;;;2.83;51.48;99535.69;4995222;28;8866;-78
2022/01/31 03:24:04;;;;;;;;;1.00;0.80;;;;;2.82;51.73;99517.66;5027980;28;9014;-76
2022/01/31 03:26:34;;;;;;;;;1.80;1.80;;;;;2.85;51.17;99507.41;5028262;28;8863;-76
2022/01/31 03:29:04;;;;;;;;;1.00;1.00;;;;;2.79;51.13;99502.97;5027843;28;8867;-76
2022/01/31 03:31:33;;;;;;;;;2.40;2.40;;;;;2.63;52.04;99511.94;4994243;28;8904;-75
2022/01/31 03:34:03;;;;;;;;;1.40;0.80;;;;;2.63;51.98;99498.19;4993952;28;8891;-75
2022/01/31 03:36:31;;;;;;;;;2.00;2.00;;;;;2.58;52.04;99497.19;5010285;28;8901;-75
2022/01/31 03:39:00;;;;;;;;;1.00;1.00;;;;;2.66;51.66;99485.41;4991153;28;8840;-76
2022/01/31 03:41:33;;;;;;;;;4.00;1.60;;;;;2.67;51.59;99482.00;4994156;28;8853;-77
2022/01/31 03:44:01;;;;;;;;;2.00;2.00;;;;;2.82;51.09;99489.31;5006430;28;8898;-76
2022/01/31 03:46:31;;;;;;;;;1.00;1.00;;;;;3.00;50.67;99489.84;5001412;28;9089;-76
2022/01/31 03:49:00;;;;;;;;;2.00;2.00;;;;;3.22;50.31;99490.47;4939027;28;8977;-76
2022/01/31 03:51:55;;;;;;;;;2.60;2.00;;;;;3.41;49.50;99492.69;4896889;29;8867;-77
2022/01/31 03:54:36;;;;;;;;;0.00;0.00;;;;;3.61;49.38;99489.78;4894376;29;8887;-76
2022/01/31 03:57:06;;;;;;;;;4.40;4.40;;;;;3.79;48.73;99487.69;4878470;29;8997;-75
2022/01/31 03:59:54;;;;;;;;;2.00;2.00;;;;;3.98;48.43;99504.50;4893802;29;9629;-77
2022/01/31 04:02:23;;;;;;;;;5.00;2.40;;;;;4.02;48.13;99498.56;4894145;29;8895;-75
2022/01/31 04:04:52;;;;;;;;;2.00;2.00;;;;;4.08;48.21;99501.34;4878426;29;9664;-76
2022/01/31 04:07:20;;;;;;;;;4.40;4.20;;;;;4.05;48.52;99490.91;4909406;29;8886;-77
2022/01/31 04:09:49;;;;;;;;;7.60;5.00;;;;;3.66;49.33;99491.66;4892550;29;8874;-76
2022/01/31 04:12:19;;;;;;;;;1.80;1.80;;;;;3.40;50.40;99485.78;4928636;29;8876;-77
2022/01/31 04:14:47;;;;;;;;;0.00;0.00;;;;;2.91;50.77;99487.00;4919768;29;9639;-76
2022/01/31 04:17:19;;;;;;;;;1.00;1.00;;;;;2.59;51.36;99493.75;4900276;29;9747;-75
2022/01/31 04:19:49;;;;;;;;;1.60;1.20;;;;;2.41;51.86;99488.94;4929901;29;8923;-75
2022/01/31 04:22:20;;;;;;;;;4.40;2.40;;;;;2.24;51.85;99481.53;4891749;29;8879;-75
2022/01/31 04:24:53;;;;;;;;;1.00;1.00;;;;;2.20;52.19;99484.84;4891844;29;8915;-77
2022/01/31 04:27:27;;;;;;;;;3.60;1.80;;;;;2.15;51.97;99488.97;4891305;29;8844;-76
2022/01/31 04:29:56;;;;;;;;;2.00;2.00;;;;;2.18;52.31;99483.94;4958835;28;8855;-76
2022/01/31 04:32:25;;;;;;;;;7.75;7.75;;;;;2.43;51.41;99483.00;4967403;28;9007;-75
2022/01/31 04:34:54;;;;;;;;;1.80;1.80;;;;;2.54;51.07;99493.63;4967408;28;8891;-76
2022/01/31 04:37:22;;;;;;;;;10.20;4.80;;;;;2.83;50.01;99481.63;4969649;28;8867;-77
2022/01/31 04:39:51;;;;;;;;;7.00;4.00;;;;;3.07;49.49;99491.75;4986977;28;8907;-75
2022/01/31 04:42:20;;;;;;;;;4.00;2.80;;;;;3.34;49.08;99483.06;4986987;28;8958;-78
2022/01/31 04:44:53;;;;;;;;;2.80;2.80;;;;;3.57;48.29;99480.22;4953954;28;8880;-75
2022/01/31 04:47:22;;;;;;;;;4.80;4.00;;;;;3.71;48.43;99473.72;4986895;28;8895;-75
2022/01/31 04:49:51;;;;;;;;;6.60;4.00;;;;;3.86;48.29;99473.25;4986497;28;8880;-76
2022/01/31 04:52:20;;;;;;;;;4.40;4.40;;;;;3.98;48.30;99465.81;4986509;28;8959;-76
2022/01/31 04:54:49;;;;;;;;;6.00;5.80;;;;;3.97;47.73;99461.50;4986769;28;8884;-79
2022/01/31 04:57:18;;;;;;;;;4.00;4.00;;;;;3.96;48.35;99453.72;4986122;28;8848;-76
2022/01/31 04:59:48;;;;;;;;;5.00;4.80;;;;;3.76;48.80;99440.31;5022501;28;8864;-76
2022/01/31 05:02:19;;;;;;;;;3.20;2.80;;;;;3.82;48.66;99438.78;5029434;28;8976;-76
2022/01/31 05:04:48;;;;;;;;;4.00;0.60;;;;;3.74;48.31;99432.53;5028975;28;8850;-78
2022/01/31 05:07:16;;;;;;;;;2.00;1.80;;;;;3.28;48.98;99434.78;5029229;28;8842;-80
2022/01/31 05:09:45;;;;;;;;;2.40;2.00;;;;;2.57;51.00;99434.53;5029631;28;8876;-78
2022/01/31 05:12:14;;;;;;;;;6.60;4.00;;;;;2.20;52.31;99430.84;5029317;28;8900;-78
2022/01/31 05:14:43;;;;;;;;;1.60;1.60;;;;;1.95;53.10;99437.78;5029629;28;8854;-76
2022/01/31 05:17:12;;;;;;;;;3.80;3.20;;;;;1.97;53.19;99437.84;5029135;28;9017;-76
2022/01/31 05:19:42;;;;;;;;;2.60;1.40;;;;;1.99;53.46;99436.19;5046231;28;8854;-76
2022/01/31 05:22:10;;;;;;;;;4.00;4.00;;;;;2.07;53.23;99439.00;4996495;28;8964;-76
2022/01/31 05:24:39;;;;;;;;;5.00;4.80;;;;;2.08;53.41;99425.28;5029130;28;9004;-77
2022/01/31 05:27:07;;;;;;;;;13.25;12.75;;;;;2.24;53.01;99429.22;5029211;28;8996;-75
2022/01/31 05:29:36;;;;;;;;;5.80;4.00;;;;;2.52;52.25;99420.66;5031229;28;8849;-76
2022/01/31 05:32:05;;;;;;;;;9.40;5.20;;;;;2.69;51.81;99432.31;5023508;28;8896;-77
2022/01/31 05:34:34;;;;;;;;;7.00;4.00;;;;;2.91;51.43;99431.22;5007410;28;8907;-78
2022/01/31 05:37:04;;;;;;;;;16.25;15.50;;;;;3.02;51.37;99423.78;5007282;28;8854;-77
2022/01/31 05:39:34;;;;;;;;;10.60;7.00;;;;;3.15;50.87;99419.84;5008683;28;8862;-76
2022/01/31 05:42:02;;;;;;;;;5.40;5.40;;;;;3.24;50.64;99422.66;5028094;28;8900;-75
2022/01/31 05:44:31;;;;;;;;;2.00;2.00;;;;;3.40;50.23;99416.19;5008760;28;8843;-78
2022/01/31 05:47:00;;;;;;;;;16.25;14.50;;;;;3.39;50.11;99418.75;5026983;28;8910;-78
2022/01/31 05:49:32;;;;;;;;;10.80;10.20;;;;;3.37;50.18;99408.41;5026811;28;8936;-76
2022/01/31 05:52:05;;;;;;;;;6.20;6.20;;;;;3.36;50.21;99403.19;5026683;28;8863;-75
2022/01/31 05:54:37;;;;;;;;;6.20;6.20;;;;;3.27;50.03;99402.16;5026631;28;8848;-76
2022/01/31 05:57:07;;;;;;;;;8.80;4.20;;;;;3.10;50.41;99391.38;5019542;28;9707;-77
2022/01/31 05:59:39;;;;;;;;;5.20;4.40;;;;;2.93;50.70;99388.34;5023309;28;8862;-77
2022/01/31 06:02:08;;;;;;;;;4.00;4.00;;;;;3.09;50.43;99381.91;5008106;28;8881;-76
2022/01/31 06:04:36;;;;;;;;;3.20;2.80;;;;;3.20;50.16;99384.78;5023458;28;8851;-76
2022/01/31 06:07:05;;;;;;;;;5.00;4.00;;;;;3.09;50.17;99396.50;4990101;28;8846;-76
2022/01/31 06:09:37;;;;;;;;;6.00;6.00;;;;;3.11;50.00;99385.38;5023296;28;9017;-79
2022/01/31 06:12:06;;;;;;;;;7.60;3.00;;;;;3.06;49.85;99379.25;5006814;28;8854;-77
2022/01/31 06:14:35;;;;;;;;;4.80;4.20;;;;;3.33;49.61;99367.94;5006825;28;8897;-77
2022/01/31 06:17:04;;;;;;;;;7.00;4.20;;;;;3.31;49.46;99364.44;5026078;28;8859;-77
2022/01/31 06:19:36;;;;;;;;;7.40;5.80;;;;;3.30;49.39;99357.53;5009916;28;8859;-77
2022/01/31 06:22:05;;;;;;;;;4.60;4.60;;;;;3.20;49.63;99360.72;5009821;28;8839;-76
2022/01/31 06:24:35;;;;;;;;;13.20;8.40;;;;;3.03;49.76;99343.09;5044840;28;8878;-78
2022/01/31 06:27:15;;;;;;;;;6.20;4.60;;;;;3.05;49.73;99341.44;5012061;28;8897;-77
2022/01/31 06:29:47;;;;;;;;;4.20;4.20;;;;;3.10;49.93;99329.56;5027793;28;9619;-76
2022/01/31 06:32:26;;;;;;;;;3.20;1.40;;;;;3.11;49.75;99331.28;5010657;28;8950;-81
2022/01/31 06:34:57;;;;;;;;;8.00;5.50;;;;;3.04;50.32;99328.50;5012094;28;8870;-80
2022/01/31 06:37:25;;;;;;;;;4.00;3.60;;;;;3.09;49.54;99317.50;5024812;28;9013;-79
2022/01/31 06:39:56;;;;;;;;;7.60;5.80;;;;;3.11;49.87;99299.50;5028041;28;8870;-78
2022/01/31 06:42:24;;;;;;;;;10.20;7.40;;;;;3.46;49.11;99302.06;5044501;28;8873;-77
2022/01/31 06:44:54;;;;;;;;;11.50;11.50;;;;;3.75;49.03;99295.03;5043035;28;8866;-81
2022/01/31 06:47:23;;;;;;;;;19.50;13.50;;;;;4.06;48.11;99291.44;5043861;28;8850;-80
2022/01/31 06:49:52;;;;;;;;;23.00;23.00;;;;;4.33;48.24;99290.25;5026416;28;8846;-79
2022/01/31 06:52:21;;;;;;;;;30.00;28.50;;;;;4.49;47.37;99292.28;5009960;28;8854;-77
2022/01/31 06:54:51;;;;;;;;;38.25;30.25;;;;;4.80;47.44;99292.00;5023857;28;8901;-78
2022/01/31 06:57:23;;;;;;;;;30.00;28.25;;;;;5.01;46.87;99295.00;5030225;28;8973;-81
2022/01/31 06:59:53;;;;;;;;;27.25;24.75;;;;;5.25;46.27;99297.13;5013578;28;8899;-79
2022/01/31 07:02:22;;;;;;;;;29.50;28.00;;;;;5.44;46.35;99293.13;5030238;28;8864;-78
2022/01/31 07:04:51;;;;;;;;;26.75;25.00;;;;;5.63;45.77;99298.56;5013359;28;8876;-77
2022/01/31 07:07:20;;;;;;;;;27.50;21.25;;;;;5.81;45.65;99298.00;5013171;28;8902;-77
2022/01/31 07:09:49;;;;;;;;;32.00;25.75;;;;;5.95;45.09;99305.94;5029797;28;8914;-78
2022/01/31 07:12:18;;;;;;;;;25.75;24.75;;;;;5.99;45.12;99300.88;5041595;28;8837;-78
2022/01/31 07:14:48;;;;;;;;;28.00;26.25;;;;;6.08;44.92;99292.34;5028304;28;8944;-79
2022/01/31 07:17:17;;;;;;;;;25.75;20.25;;;;;6.16;44.64;99306.28;5010104;28;8868;-80
2022/01/31 07:19:46;;;;;;;;;26.25;26.00;;;;;6.24;44.34;99293.44;5026590;28;8976;-79
2022/01/31 07:22:16;;;;;;;;;25.00;24.00;;;;;6.28;44.16;99295.22;5010337;28;8876;-78
2022/01/31 07:24:49;;;;;;;;;30.25;25.00;;;;;6.36;43.98;99300.47;5009578;28;8871;-77
2022/01/31 07:27:18;;;;;;;;;30.75;23.00;;;;;6.38;43.64;99297.03;5011155;28;9630;-77
2022/01/31 07:29:48;;;;;;;;;25.25;23.50;;;;;6.40;43.45;99303.13;5012180;28;8893;-75
2022/01/31 07:32:16;;;;;;;;;23.50;22.50;;;;;6.46;43.62;99299.72;5046050;28;9051;-76
2022/01/31 07:34:49;;;;;;;;;35.00;28.75;;;;;6.52;43.30;99285.97;5028971;28;8866;-74
2022/01/31 07:37:17;;;;;;;;;23.50;21.00;;;;;6.57;43.39;99289.50;5029441;28;8869;-76
2022/01/31 07:39:46;;;;;;;;;26.00;23.50;;;;;6.58;43.36;99268.78;5029351;28;8941;-76
2022/01/31 07:42:16;;;;;;;;;16.25;16.25;;;;;6.67;42.93;99273.19;5028590;28;8877;-75
2022/01/31 07:44:49;;;;;;;;;28.00;22.25;;;;;6.66;42.87;99274.06;5042139;28;8966;-77
2022/01/31 07:47:18;;;;;;;;;19.25;18.75;;;;;6.74;42.19;99262.03;5027122;28;8888;-77
2022/01/31 07:49:47;;;;;;;;;25.50;22.75;;;;;6.72;42.38;99257.72;5027851;28;8850;-73
2022/01/31 07:52:15;;;;;;;;;24.00;20.25;;;;;6.78;41.76;99258.63;5028095;28;8908;-77
2022/01/31 07:54:44;;;;;;;;;22.00;14.00;;;;;6.89;42.26;99255.28;5042533;28;8872;-75
2022/01/31 07:57:13;;;;;;;;;31.00;26.25;;;;;6.96;41.98;99257.09;5011593;28;8872;-75
2022/01/31 08:00:02;;;;;;;;;28.25;25.00;;;;;6.94;42.13;99251.03;5027102;28;8879;-73
2022/01/31 08:02:39;;;;;;;;;21.00;20.50;;;;;6.94;41.92;99259.66;5042629;28;8852;-74
2022/01/31 08:05:09;;;;;;;;;37.50;33.75;;;;;6.94;41.67;99263.97;4993691;28;8858;-75
2022/01/31 08:07:38;;;;;;;;;34.25;32.00;;;;;7.01;42.12;99270.94;4994033;28;8840;-74
2022/01/31 08:10:08;;;;;;;;;36.00;34.75;;;;;7.04;41.54;99268.38;4993256;28;8984;-77
2022/01/31 08:12:37;;;;;;;;;35.00;27.00;;;;;7.20;41.63;99266.78;5018523;28;8991;-76
2022/01/31 08:15:14;;;;;;;;;36.00;33.50;;;;;7.31;41.74;99254.78;5029463;28;8894;-75
2022/01/31 08:17:43;;;;;;;;;44.50;37.75;;;;;7.44;41.51;99237.59;5027704;28;8875;-75
2022/01/31 08:20:12;;;;;;;;;41.25;39.75;;;;;7.47;41.53;99236.75;5013302;28;8978;-76
2022/01/31 08:22:41;;;;;;;;;29.50;26.25;;;;;7.52;41.55;99230.72;4998418;28;8897;-75
2022/01/31 08:25:14;;;;;;;;;29.25;27.00;;;;;7.60;40.85;99235.97;5041531;28;8859;-75
2022/01/31 08:27:45;;;;;;;;;14.75;9.00;;;;;7.65;40.50;99223.03;5026283;28;8891;-73
2022/01/31 08:30:21;;;;;;;;;26.50;19.25;;;;;7.42;40.75;99224.59;5024821;28;8847;-76
2022/01/31 08:32:59;;;;;;;;;26.25;22.50;;;;;7.49;39.78;99216.88;5026004;28;8851;-74
2022/01/31 08:38:17;;;;;;;;;24.75;17.00;;;;;7.20;41.07;99209.72;5003847;28;8858;-75
2022/01/31 08:40:46;;;;;;;;;24.50;24.00;;;;;7.22;40.48;99205.44;5025579;28;8856;-75
2022/01/31 08:43:17;;;;;;;;;30.00;26.50;;;;;7.05;41.09;99201.84;5025359;28;8863;-75
2022/01/31 08:45:48;;;;;;;;;24.25;22.75;;;;;7.37;41.08;99189.09;5025121;28;8878;-78
2022/01/31 08:48:18;;;;;;;;;23.80;20.80;;;;;7.34;40.75;99187.38;5025702;28;8858;-76
2022/01/31 08:50:46;;;;;;;;;20.60;18.60;;;;;7.49;40.96;99184.00;4997004;28;8870;-75
2022/01/31 08:53:15;;;;;;;;;15.40;11.60;;;;;7.70;40.70;99183.25;5007545;28;8997;-75
2022/01/31 08:55:48;;;;;;;;;16.20;16.00;;;;;7.81;39.81;99185.91;5023582;28;10032;-75
2022/01/31 08:58:18;;;;;;;;;17.60;16.40;;;;;7.94;39.40;99179.03;5026935;28;8882;-74
2022/01/31 09:00:50;;;;;;;;;20.40;18.00;;;;;8.13;39.61;99174.81;5022817;28;8852;-75
2022/01/31 09:03:34;;;;;;;;;19.40;14.00;;;;;8.23;38.37;99178.28;5026323;28;8871;-76
2022/01/31 09:06:03;;;;;;;;;19.60;16.80;;;;;8.25;38.41;99177.41;5026793;28;8903;-76
2022/01/31 09:08:32;;;;;;;;;16.40;15.20;;;;;8.39;38.61;99167.94;5025945;28;8816;-73
2022/01/31 09:11:01;;;;;;;;;14.60;14.60;;;;;8.43;37.95;99171.44;4990551;28;8971;-77
2022/01/31 09:13:30;;;;;;;;;14.20;12.00;;;;;8.60;38.47;99179.28;5024378;28;8873;-76
2022/01/31 09:16:00;;;;;;;;;19.60;17.80;;;;;8.51;38.23;99172.31;5026537;28;8892;-74
2022/01/31 09:18:29;;;;;;;;;18.80;16.00;;;;;8.64;37.82;99167.13;5009634;28;8982;-75
2022/01/31 09:20:58;;;;;;;;;19.80;16.40;;;;;8.29;38.75;99162.72;5028283;28;8987;-74
2022/01/31 09:23:27;;;;;;;;;23.75;23.75;;;;;8.05;39.68;99146.19;5044457;28;8839;-75
2022/01/31 09:25:57;;;;;;;;;22.50;19.50;;;;;8.36;38.68;99141.94;4991449;28;8873;-76
2022/01/31 09:28:27;;;;;;;;;27.25;23.50;;;;;8.49;38.87;99132.47;5012637;28;8880;-75
2022/01/31 09:30:56;;;;;;;;;21.75;19.50;;;;;8.58;37.81;99131.59;5014107;28;8857;-76
2022/01/31 09:33:27;;;;;;;;;22.75;20.75;;;;;8.67;38.38;99117.75;5007720;28;8879;-74
2022/01/31 09:35:56;;;;;;;;;24.20;20.20;;;;;8.95;37.87;99116.88;5007907;28;9637;-77
2022/01/31 09:38:25;;;;;;;;;20.40;19.80;;;;;9.01;36.93;99104.72;5023853;28;8860;-77
2022/01/31 09:40:54;;;;;;;;;23.50;21.50;;;;;9.12;38.00;99100.38;5023278;28;8869;-76
2022/01/31 09:43:41;;;;;;;;;21.60;20.80;;;;;9.13;37.47;99082.19;4975391;28;8877;-74
2022/01/31 09:46:33;;;;;;;;;18.80;12.20;;;;;9.12;36.49;99069.16;5024519;28;9610;-74
2022/01/31 09:49:03;;;;;;;;;21.00;16.60;;;;;9.41;36.25;99061.25;4991941;28;8872;-74
2022/01/31 09:51:33;;;;;;;;;9.80;8.00;;;;;9.41;35.77;99055.19;5015704;28;8915;-74
2022/01/31 09:54:05;;;;;;;;;16.40;13.80;;;;;9.30;35.91;99034.41;4977030;28;9645;-74
2022/01/31 09:56:37;;;;;;;;;18.60;13.00;;;;;9.08;36.09;99036.25;4996148;28;8996;-77
2022/01/31 09:59:08;;;;;;;;;10.20;9.80;;;;;8.57;36.19;99021.59;5026772;28;8892;-77
2022/01/31 10:01:41;;;;;;;;;11.20;10.40;;;;;8.67;37.29;99017.25;5041910;28;10238;-77
2022/01/31 10:04:17;;;;;;;;;15.40;11.80;;;;;8.87;36.38;99003.34;5035717;28;9060;-75
2022/01/31 10:06:48;;;;;;;;;16.00;13.00;;;;;8.47;36.98;99009.47;5022819;28;8986;-75
2022/01/31 10:09:19;;;;;;;;;16.40;15.20;;;;;8.65;36.42;99002.53;5043989;28;8876;-76
2022/01/31 10:11:51;;;;;;;;;21.00;18.40;;;;;8.85;37.23;99005.09;5042633;28;8883;-73
2022/01/31 10:17:23;;;;;;;;;13.20;10.80;;;;;9.09;36.27;99007.63;5004876;28;8881;-75
2022/01/31 10:20:11;;;;;;;;;14.00;10.80;;;;;9.20;35.52;98999.75;5033851;28;8856;-74
2022/01/31 10:22:41;;;;;;;;;14.40;11.80;;;;;9.33;35.94;98993.63;5024314;28;9606;-76
2022/01/31 10:25:13;;;;;;;;;11.40;8.80;;;;;9.22;35.58;98985.00;5008208;28;8872;-76
2022/01/31 10:28:10;;;;;;;;;11.00;9.40;;;;;9.15;35.02;98978.13;5040017;28;8909;-75
2022/01/31 10:30:38;;;;;;;;;8.60;7.80;;;;;8.91;35.46;98966.94;5045879;28;9017;-76
2022/01/31 10:33:09;;;;;;;;;11.40;7.40;;;;;8.53;35.44;98965.28;5031983;28;8880;-75
2022/01/31 10:35:40;;;;;;;;;14.80;13.00;;;;;8.55;36.30;98960.97;5048058;28;8862;-75
2022/01/31 10:38:12;;;;;;;;;11.60;10.00;;;;;8.48;36.55;98968.78;5030632;28;8905;-74
2022/01/31 10:52:25;;;;;;;;;8.00;5.60;;;;;9.69;34.23;98933.59;4968355;28;8872;-74
2022/01/31 10:54:55;;;;;;;;;13.00;10.40;;;;;9.67;34.50;98938.78;4969402;28;8978;-73
2022/01/31 10:57:24;;;;;;;;;8.00;8.00;;;;;9.91;34.20;98942.13;4971093;28;8881;-76
2022/01/31 11:00:00;;;;;;;;;5.00;5.00;;;;;9.93;33.51;98945.56;4987291;28;8883;-73
2022/01/31 11:02:29;;;;;;;;;12.40;12.40;;;;;9.85;34.12;98927.41;4952349;28;8875;-78
2022/01/31 11:04:58;;;;;;;;;11.80;8.40;;;;;9.85;34.81;98931.72;4947359;28;8879;-76
2022/01/31 11:07:29;;;;;;;;;8.80;7.60;;;;;10.12;33.72;98933.25;4942426;28;8932;-77
2022/01/31 11:09:59;;;;;;;;;9.20;6.20;;;;;10.23;34.37;98915.78;4952440;28;8851;-75
2022/01/31 11:12:28;;;;;;;;;6.20;5.00;;;;;10.31;33.02;98902.72;4952583;28;8978;-74
2022/01/31 11:14:57;;;;;;;;;6.60;4.40;;;;;10.40;32.84;98905.22;4952456;28;8954;-75
2022/01/31 11:17:26;;;;;;;;;6.40;3.60;;;;;10.48;33.05;98907.75;4936632;28;9026;-74
2022/01/31 11:19:57;;;;;;;;;6.00;6.00;;;;;10.62;33.37;98898.03;4967738;28;8898;-74
2022/01/31 11:22:34;;;;;;;;;9.60;9.60;;;;;10.68;32.20;98900.59;4952845;28;8859;-75
2022/01/31 11:25:20;;;;;;;;;4.00;4.00;;;;;10.80;32.07;98898.72;5010676;28;8847;-73
2022/01/31 11:27:53;;;;;;;;;10.00;9.40;;;;;10.89;32.40;98894.25;5009876;28;8957;-77
2022/01/31 11:30:23;;;;;;;;;8.80;7.40;;;;;10.80;31.98;98893.50;5013670;28;8858;-74
2022/01/31 11:32:53;;;;;;;;;12.00;9.00;;;;;10.85;32.12;98899.50;5026063;28;8855;-74
2022/01/31 11:35:23;;;;;;;;;10.60;7.00;;;;;10.83;31.96;98881.28;5045008;28;8871;-73
2022/01/31 11:37:54;;;;;;;;;9.20;8.60;;;;;10.55;32.56;98888.56;5047329;28;8854;-73
2022/01/31 11:40:23;;;;;;;;;6.60;6.20;;;;;10.63;32.00;98881.50;5014100;28;8844;-75
2022/01/31 11:42:54;;;;;;;;;11.40;9.20;;;;;10.73;32.15;98866.63;5046596;28;8874;-74
2022/01/31 11:45:27;;;;;;;;;13.80;11.60;;;;;10.78;31.66;98851.78;5030532;28;8856;-76
2022/01/31 11:47:59;;;;;;;;;12.20;11.00;;;;;10.64;31.95;98845.88;4997610;28;8878;-76
2022/01/31 11:50:28;;;;;;;;;17.40;12.20;;;;;10.82;32.55;98824.78;5030195;28;8967;-77
2022/01/31 11:53:01;;;;;;;;;6.80;6.80;;;;;11.01;32.44;98811.50;5046599;28;9024;-76
2022/01/31 11:55:35;;;;;;;;;10.60;7.00;;;;;11.14;31.48;98805.22;5044746;28;8891;-75
2022/01/31 11:58:08;;;;;;;;;7.20;7.00;;;;;11.22;31.20;98794.66;5029526;28;8938;-78
2022/01/31 12:00:38;;;;;;;;;7.00;7.00;;;;;11.26;31.30;98781.53;5004588;28;8854;-74
2022/01/31 12:03:09;;;;;;;;;7.20;6.60;;;;;11.15;31.21;98779.97;5030085;28;8931;-76
2022/01/31 12:05:40;;;;;;;;;3.60;3.60;;;;;11.21;31.23;98766.81;5013672;28;8850;-78
2022/01/31 12:08:15;;;;;;;;;0.00;0.00;;;;;11.28;31.12;98753.66;5025710;28;8865;-75
2022/01/31 12:10:47;;;;;;;;;3.00;3.00;;;;;11.29;31.22;98742.34;5008205;28;8870;-77
2022/01/31 12:13:35;;;;;;;;;2.60;2.60;;;;;11.27;30.79;98741.50;5028503;28;8871;-69
2022/01/31 12:16:17;;;;;;;;;5.60;3.20;;;;;11.10;30.91;98731.34;5066348;28;9721;-74
2022/01/31 12:18:56;;;;;;;;;6.60;4.60;;;;;11.12;30.42;98708.69;5045433;28;8868;-75
2022/01/31 12:24:28;;;;;;;;;5.20;3.80;;;;;11.00;31.07;98668.88;5057966;28;8874;-73